sensor_id;sensor_type;location;lat;lon;timestamp;P1;durP1;ratioP1;P2;durP2;ratioP2
24325;SDS011;12448;45.532;5.290;2022-12-07T00:01:29;180.85;;;30.08;;
24325;SDS011;12448;45.532;5.290;2022-12-07T00:04:00;289.25;;;25.95;;
24325;SDS011;12448;45.532;5.290;2022-12-07T00:06:30;159.45;;;28.33;;
24325;SDS011;12448;45.532;5.290;2022-12-07T00:08:56;174.25;;;34.00;;
24325;SDS011;12448;45.532;5.290;2022-12-07T00:11:22;197.90;;;33.87;;
24325;SDS011;12448;45.532;5.290;2022-12-07T00:13:55;267.23;;;44.08;;
24325;SDS011;12448;45.532;5.290;2022-12-07T00:16:23;156.35;;;30.92;;
24325;SDS011;12448;45.532;5.290;2022-12-07T00:18:51;112.97;;;29.33;;
24325;SDS011;12448;45.532;5.290;2022-12-07T00:23:43;403.23;;;27.00;;
24325;SDS011;12448;45.532;5.290;2022-12-07T00:26:15;344.58;;;31.80;;
24325;SDS011;12448;45.532;5.290;2022-12-07T00:28:49;429.67;;;26.88;;
24325;SDS011;12448;45.532;5.290;2022-12-07T00:31:17;257.48;;;25.58;;
24325;SDS011;12448;45.532;5.290;2022-12-07T00:33:44;490.50;;;34.37;;
24325;SDS011;12448;45.532;5.290;2022-12-07T00:36:11;279.90;;;23.77;;
24325;SDS011;12448;45.532;5.290;2022-12-07T00:38:39;145.98;;;22.58;;
24325;SDS011;12448;45.532;5.290;2022-12-07T00:41:09;152.93;;;23.27;;
24325;SDS011;12448;45.532;5.290;2022-12-07T00:43:37;121.55;;;35.75;;
24325;SDS011;12448;45.532;5.290;2022-12-07T00:46:03;363.50;;;26.20;;
24325;SDS011;12448;45.532;5.290;2022-12-07T00:48:29;329.02;;;26.83;;
24325;SDS011;12448;45.532;5.290;2022-12-07T00:50:55;422.17;;;27.05;;
24325;SDS011;12448;45.532;5.290;2022-12-07T00:53:20;237.73;;;26.23;;
24325;SDS011;12448;45.532;5.290;2022-12-07T00:55:46;146.73;;;25.67;;
24325;SDS011;12448;45.532;5.290;2022-12-07T00:58:12;133.83;;;27.23;;
24325;SDS011;12448;45.532;5.290;2022-12-07T01:00:39;71.45;;;26.40;;
24325;SDS011;12448;45.532;5.290;2022-12-07T01:03:06;64.83;;;24.20;;
24325;SDS011;12448;45.532;5.290;2022-12-07T01:05:33;82.80;;;24.80;;
24325;SDS011;12448;45.532;5.290;2022-12-07T01:07:59;249.07;;;33.83;;
24325;SDS011;12448;45.532;5.290;2022-12-07T01:10:26;71.20;;;26.10;;
24325;SDS011;12448;45.532;5.290;2022-12-07T01:12:52;82.88;;;22.98;;
24325;SDS011;12448;45.532;5.290;2022-12-07T01:15:18;136.00;;;23.30;;
24325;SDS011;12448;45.532;5.290;2022-12-07T01:17:44;295.03;;;23.23;;
24325;SDS011;12448;45.532;5.290;2022-12-07T01:20:09;82.50;;;22.67;;
24325;SDS011;12448;45.532;5.290;2022-12-07T01:22:40;97.90;;;23.13;;
24325;SDS011;12448;45.532;5.290;2022-12-07T01:25:06;162.50;;;23.73;;
24325;SDS011;12448;45.532;5.290;2022-12-07T01:27:34;191.25;;;24.45;;
24325;SDS011;12448;45.532;5.290;2022-12-07T01:30:00;117.13;;;23.03;;
24325;SDS011;12448;45.532;5.290;2022-12-07T01:32:27;84.80;;;23.43;;
24325;SDS011;12448;45.532;5.290;2022-12-07T01:34:54;99.53;;;23.97;;
24325;SDS011;12448;45.532;5.290;2022-12-07T01:37:19;109.60;;;21.75;;
24325;SDS011;12448;45.532;5.290;2022-12-07T01:39:48;102.70;;;23.10;;
24325;SDS011;12448;45.532;5.290;2022-12-07T01:42:14;266.17;;;24.13;;
24325;SDS011;12448;45.532;5.290;2022-12-07T01:47:50;178.93;;;24.93;;
24325;SDS011;12448;45.532;5.290;2022-12-07T01:50:19;513.17;;;25.75;;
24325;SDS011;12448;45.532;5.290;2022-12-07T01:52:46;458.63;;;24.70;;
24325;SDS011;12448;45.532;5.290;2022-12-07T01:55:14;420.27;;;24.63;;
24325;SDS011;12448;45.532;5.290;2022-12-07T01:57:41;173.73;;;25.33;;
24325;SDS011;12448;45.532;5.290;2022-12-07T02:00:11;463.80;;;28.45;;
24325;SDS011;12448;45.532;5.290;2022-12-07T02:02:38;439.23;;;28.75;;
24325;SDS011;12448;45.532;5.290;2022-12-07T02:05:12;701.08;;;28.05;;
24325;SDS011;12448;45.532;5.290;2022-12-07T02:07:38;596.43;;;25.63;;
24325;SDS011;12448;45.532;5.290;2022-12-07T02:10:15;452.30;;;25.27;;
24325;SDS011;12448;45.532;5.290;2022-12-07T02:12:46;387.80;;;24.15;;
24325;SDS011;12448;45.532;5.290;2022-12-07T02:15:16;780.22;;;28.00;;
24325;SDS011;12448;45.532;5.290;2022-12-07T02:21:13;415.02;;;25.85;;
24325;SDS011;12448;45.532;5.290;2022-12-07T02:26:41;728.60;;;26.67;;
24325;SDS011;12448;45.532;5.290;2022-12-07T02:29:23;632.92;;;27.05;;
24325;SDS011;12448;45.532;5.290;2022-12-07T02:34:49;782.85;;;26.88;;
24325;SDS011;12448;45.532;5.290;2022-12-07T02:38:04;814.22;;;26.48;;
24325;SDS011;12448;45.532;5.290;2022-12-07T02:40:35;864.70;;;29.07;;
24325;SDS011;12448;45.532;5.290;2022-12-07T02:43:25;754.65;;;27.58;;
24325;SDS011;12448;45.532;5.290;2022-12-07T02:46:02;894.50;;;28.92;;
24325;SDS011;12448;45.532;5.290;2022-12-07T02:48:32;550.78;;;25.60;;
24325;SDS011;12448;45.532;5.290;2022-12-07T02:51:00;676.97;;;25.95;;
24325;SDS011;12448;45.532;5.290;2022-12-07T02:53:29;963.72;;;29.38;;
24325;SDS011;12448;45.532;5.290;2022-12-07T02:56:06;650.23;;;25.00;;
24325;SDS011;12448;45.532;5.290;2022-12-07T03:01:31;690.58;;;25.10;;
24325;SDS011;12448;45.532;5.290;2022-12-07T03:04:33;912.40;;;27.27;;
24325;SDS011;12448;45.532;5.290;2022-12-07T03:07:14;514.90;;;25.50;;
24325;SDS011;12448;45.532;5.290;2022-12-07T03:10:17;798.58;;;27.23;;
24325;SDS011;12448;45.532;5.290;2022-12-07T03:13:25;421.13;;;24.37;;
24325;SDS011;12448;45.532;5.290;2022-12-07T03:19:02;322.33;;;22.05;;
24325;SDS011;12448;45.532;5.290;2022-12-07T03:21:37;200.65;;;20.10;;
24325;SDS011;12448;45.532;5.290;2022-12-07T03:24:07;51.30;;;20.57;;
24325;SDS011;12448;45.532;5.290;2022-12-07T03:26:36;260.70;;;21.70;;
24325;SDS011;12448;45.532;5.290;2022-12-07T03:29:07;121.50;;;20.42;;
24325;SDS011;12448;45.532;5.290;2022-12-07T03:31:40;437.83;;;22.95;;
24325;SDS011;12448;45.532;5.290;2022-12-07T03:34:15;87.90;;;21.42;;
24325;SDS011;12448;45.532;5.290;2022-12-07T03:39:41;114.45;;;22.10;;
24325;SDS011;12448;45.532;5.290;2022-12-07T03:42:28;77.35;;;22.48;;
24325;SDS011;12448;45.532;5.290;2022-12-07T03:44:55;80.43;;;21.85;;
24325;SDS011;12448;45.532;5.290;2022-12-07T03:47:26;105.60;;;22.48;;
24325;SDS011;12448;45.532;5.290;2022-12-07T03:49:59;51.08;;;20.58;;
24325;SDS011;12448;45.532;5.290;2022-12-07T03:55:17;46.80;;;21.63;;
24325;SDS011;12448;45.532;5.290;2022-12-07T03:57:44;47.90;;;20.73;;
24325;SDS011;12448;45.532;5.290;2022-12-07T04:00:13;119.83;;;23.33;;
24325;SDS011;12448;45.532;5.290;2022-12-07T04:02:39;171.05;;;21.67;;
24325;SDS011;12448;45.532;5.290;2022-12-07T04:05:06;93.70;;;24.20;;
24325;SDS011;12448;45.532;5.290;2022-12-07T04:07:33;398.05;;;25.15;;
24325;SDS011;12448;45.532;5.290;2022-12-07T04:09:58;341.02;;;24.63;;
24325;SDS011;12448;45.532;5.290;2022-12-07T04:12:24;199.73;;;21.80;;
24325;SDS011;12448;45.532;5.290;2022-12-07T04:14:50;470.50;;;24.23;;
24325;SDS011;12448;45.532;5.290;2022-12-07T04:17:15;59.72;;;20.95;;
24325;SDS011;12448;45.532;5.290;2022-12-07T04:19:41;105.03;;;22.88;;
24325;SDS011;12448;45.532;5.290;2022-12-07T04:22:07;140.50;;;22.70;;
24325;SDS011;12448;45.532;5.290;2022-12-07T04:24:33;463.60;;;24.85;;
24325;SDS011;12448;45.532;5.290;2022-12-07T04:26:59;345.90;;;22.15;;
24325;SDS011;12448;45.532;5.290;2022-12-07T04:29:25;238.70;;;22.77;;
24325;SDS011;12448;45.532;5.290;2022-12-07T04:31:51;346.67;;;23.23;;
24325;SDS011;12448;45.532;5.290;2022-12-07T04:34:17;173.50;;;23.48;;
24325;SDS011;12448;45.532;5.290;2022-12-07T04:36:43;724.30;;;26.17;;
24325;SDS011;12448;45.532;5.290;2022-12-07T04:39:20;335.92;;;22.63;;
24325;SDS011;12448;45.532;5.290;2022-12-07T04:41:50;409.03;;;24.00;;
24325;SDS011;12448;45.532;5.290;2022-12-07T04:44:16;101.40;;;21.27;;
24325;SDS011;12448;45.532;5.290;2022-12-07T04:46:43;60.00;;;20.20;;
24325;SDS011;12448;45.532;5.290;2022-12-07T04:49:10;43.33;;;20.02;;
24325;SDS011;12448;45.532;5.290;2022-12-07T04:51:36;57.07;;;21.27;;
24325;SDS011;12448;45.532;5.290;2022-12-07T04:54:02;50.30;;;20.73;;
24325;SDS011;12448;45.532;5.290;2022-12-07T04:56:28;56.83;;;20.70;;
24325;SDS011;12448;45.532;5.290;2022-12-07T04:58:54;71.00;;;26.40;;
24325;SDS011;12448;45.532;5.290;2022-12-07T05:01:20;55.28;;;22.35;;
24325;SDS011;12448;45.532;5.290;2022-12-07T05:03:47;48.92;;;20.55;;
24325;SDS011;12448;45.532;5.290;2022-12-07T05:06:14;43.97;;;20.73;;
24325;SDS011;12448;45.532;5.290;2022-12-07T05:08:40;39.50;;;19.33;;
24325;SDS011;12448;45.532;5.290;2022-12-07T05:11:07;61.80;;;21.88;;
24325;SDS011;12448;45.532;5.290;2022-12-07T05:13:34;63.75;;;21.33;;
24325;SDS011;12448;45.532;5.290;2022-12-07T05:16:00;42.92;;;20.48;;
24325;SDS011;12448;45.532;5.290;2022-12-07T05:18:27;46.40;;;21.05;;
24325;SDS011;12448;45.532;5.290;2022-12-07T05:20:52;52.22;;;20.10;;
24325;SDS011;12448;45.532;5.290;2022-12-07T05:23:18;45.23;;;19.60;;
24325;SDS011;12448;45.532;5.290;2022-12-07T05:25:44;48.28;;;21.77;;
24325;SDS011;12448;45.532;5.290;2022-12-07T05:28:10;54.30;;;23.13;;
24325;SDS011;12448;45.532;5.290;2022-12-07T05:30:36;42.65;;;19.83;;
24325;SDS011;12448;45.532;5.290;2022-12-07T05:33:01;42.90;;;19.98;;
24325;SDS011;12448;45.532;5.290;2022-12-07T05:35:27;42.38;;;19.65;;
24325;SDS011;12448;45.532;5.290;2022-12-07T05:37:53;46.60;;;20.98;;
24325;SDS011;12448;45.532;5.290;2022-12-07T05:40:19;48.57;;;22.17;;
24325;SDS011;12448;45.532;5.290;2022-12-07T05:42:45;56.22;;;21.35;;
24325;SDS011;12448;45.532;5.290;2022-12-07T05:45:10;53.58;;;20.88;;
24325;SDS011;12448;45.532;5.290;2022-12-07T05:47:36;49.63;;;21.57;;
24325;SDS011;12448;45.532;5.290;2022-12-07T05:50:03;55.05;;;22.27;;
24325;SDS011;12448;45.532;5.290;2022-12-07T05:52:30;47.75;;;20.70;;
24325;SDS011;12448;45.532;5.290;2022-12-07T05:54:55;206.90;;;23.10;;
24325;SDS011;12448;45.532;5.290;2022-12-07T05:57:21;58.58;;;20.80;;
24325;SDS011;12448;45.532;5.290;2022-12-07T05:59:47;93.30;;;22.05;;
24325;SDS011;12448;45.532;5.290;2022-12-07T06:02:13;68.60;;;21.85;;
24325;SDS011;12448;45.532;5.290;2022-12-07T06:04:42;49.67;;;20.90;;
24325;SDS011;12448;45.532;5.290;2022-12-07T06:07:09;51.43;;;20.30;;
24325;SDS011;12448;45.532;5.290;2022-12-07T06:09:36;57.70;;;21.40;;
24325;SDS011;12448;45.532;5.290;2022-12-07T06:12:02;51.50;;;20.90;;
24325;SDS011;12448;45.532;5.290;2022-12-07T06:14:47;52.47;;;20.83;;
24325;SDS011;12448;45.532;5.290;2022-12-07T06:17:13;82.35;;;20.55;;
24325;SDS011;12448;45.532;5.290;2022-12-07T06:19:39;54.33;;;20.50;;
24325;SDS011;12448;45.532;5.290;2022-12-07T06:22:05;54.70;;;21.52;;
24325;SDS011;12448;45.532;5.290;2022-12-07T06:24:31;47.08;;;21.35;;
24325;SDS011;12448;45.532;5.290;2022-12-07T06:26:58;49.25;;;21.50;;
24325;SDS011;12448;45.532;5.290;2022-12-07T06:29:24;71.83;;;20.50;;
24325;SDS011;12448;45.532;5.290;2022-12-07T06:31:49;52.88;;;19.48;;
24325;SDS011;12448;45.532;5.290;2022-12-07T06:34:16;186.00;;;21.63;;
24325;SDS011;12448;45.532;5.290;2022-12-07T06:36:44;113.85;;;19.70;;
24325;SDS011;12448;45.532;5.290;2022-12-07T06:39:12;84.70;;;19.30;;
24325;SDS011;12448;45.532;5.290;2022-12-07T06:41:38;201.80;;;41.13;;
24325;SDS011;12448;45.532;5.290;2022-12-07T06:44:04;248.47;;;108.27;;
24325;SDS011;12448;45.532;5.290;2022-12-07T06:46:30;193.68;;;35.50;;
24325;SDS011;12448;45.532;5.290;2022-12-07T06:48:56;152.35;;;31.45;;
24325;SDS011;12448;45.532;5.290;2022-12-07T06:51:22;321.60;;;32.00;;
24325;SDS011;12448;45.532;5.290;2022-12-07T06:53:48;266.02;;;31.63;;
24325;SDS011;12448;45.532;5.290;2022-12-07T06:56:13;361.63;;;65.75;;
24325;SDS011;12448;45.532;5.290;2022-12-07T06:58:39;461.60;;;41.03;;
24325;SDS011;12448;45.532;5.290;2022-12-07T07:01:12;330.35;;;35.45;;
24325;SDS011;12448;45.532;5.290;2022-12-07T07:03:39;385.85;;;38.47;;
24325;SDS011;12448;45.532;5.290;2022-12-07T07:06:05;324.92;;;31.73;;
24325;SDS011;12448;45.532;5.290;2022-12-07T07:08:32;575.87;;;61.80;;
24325;SDS011;12448;45.532;5.290;2022-12-07T07:10:58;285.35;;;49.63;;
24325;SDS011;12448;45.532;5.290;2022-12-07T07:13:24;346.98;;;63.40;;
24325;SDS011;12448;45.532;5.290;2022-12-07T07:15:50;478.40;;;39.47;;
24325;SDS011;12448;45.532;5.290;2022-12-07T07:18:15;187.52;;;34.22;;
24325;SDS011;12448;45.532;5.290;2022-12-07T07:20:41;439.90;;;60.07;;
24325;SDS011;12448;45.532;5.290;2022-12-07T07:23:06;469.37;;;53.83;;
24325;SDS011;12448;45.532;5.290;2022-12-07T07:25:32;218.73;;;23.15;;
24325;SDS011;12448;45.532;5.290;2022-12-07T07:27:58;657.77;;;29.47;;
24325;SDS011;12448;45.532;5.290;2022-12-07T07:30:24;410.40;;;43.27;;
24325;SDS011;12448;45.532;5.290;2022-12-07T07:32:51;472.50;;;39.70;;
24325;SDS011;12448;45.532;5.290;2022-12-07T07:35:16;336.73;;;23.47;;
24325;SDS011;12448;45.532;5.290;2022-12-07T07:37:42;539.07;;;32.03;;
24325;SDS011;12448;45.532;5.290;2022-12-07T07:40:08;449.90;;;34.47;;
24325;SDS011;12448;45.532;5.290;2022-12-07T07:42:34;191.00;;;23.45;;
24325;SDS011;12448;45.532;5.290;2022-12-07T07:45:00;173.00;;;68.37;;
24325;SDS011;12448;45.532;5.290;2022-12-07T07:47:25;555.08;;;149.10;;
24325;SDS011;12448;45.532;5.290;2022-12-07T07:49:51;412.67;;;68.63;;
24325;SDS011;12448;45.532;5.290;2022-12-07T07:52:17;155.67;;;22.80;;
24325;SDS011;12448;45.532;5.290;2022-12-07T07:54:42;345.02;;;35.25;;
24325;SDS011;12448;45.532;5.290;2022-12-07T07:57:08;276.45;;;25.33;;
24325;SDS011;12448;45.532;5.290;2022-12-07T07:59:33;311.98;;;40.25;;
24325;SDS011;12448;45.532;5.290;2022-12-07T08:01:59;304.75;;;27.17;;
24325;SDS011;12448;45.532;5.290;2022-12-07T08:04:25;307.05;;;48.08;;
24325;SDS011;12448;45.532;5.290;2022-12-07T08:06:50;287.48;;;26.38;;
24325;SDS011;12448;45.532;5.290;2022-12-07T08:09:16;253.27;;;46.85;;
24325;SDS011;12448;45.532;5.290;2022-12-07T08:11:42;325.77;;;31.70;;
24325;SDS011;12448;45.532;5.290;2022-12-07T08:14:07;298.55;;;33.00;;
24325;SDS011;12448;45.532;5.290;2022-12-07T08:16:35;357.30;;;24.42;;
24325;SDS011;12448;45.532;5.290;2022-12-07T08:19:03;440.00;;;32.10;;
24325;SDS011;12448;45.532;5.290;2022-12-07T08:21:30;320.73;;;22.40;;
24325;SDS011;12448;45.532;5.290;2022-12-07T08:23:56;346.15;;;26.10;;
24325;SDS011;12448;45.532;5.290;2022-12-07T08:26:22;332.60;;;19.00;;
24325;SDS011;12448;45.532;5.290;2022-12-07T08:28:48;355.23;;;21.30;;
24325;SDS011;12448;45.532;5.290;2022-12-07T08:31:14;466.92;;;16.63;;
24325;SDS011;12448;45.532;5.290;2022-12-07T08:33:41;193.38;;;15.70;;
24325;SDS011;12448;45.532;5.290;2022-12-07T08:36:08;328.65;;;17.98;;
24325;SDS011;12448;45.532;5.290;2022-12-07T08:38:36;320.45;;;15.80;;
24325;SDS011;12448;45.532;5.290;2022-12-07T08:41:03;220.40;;;20.50;;
24325;SDS011;12448;45.532;5.290;2022-12-07T08:43:29;213.57;;;19.40;;
24325;SDS011;12448;45.532;5.290;2022-12-07T08:48:55;238.15;;;22.23;;
24325;SDS011;12448;45.532;5.290;2022-12-07T08:51:26;395.50;;;66.47;;
24325;SDS011;12448;45.532;5.290;2022-12-07T08:53:51;667.07;;;77.07;;
24325;SDS011;12448;45.532;5.290;2022-12-07T08:56:18;602.87;;;47.30;;
24325;SDS011;12448;45.532;5.290;2022-12-07T08:58:45;556.22;;;95.18;;
24325;SDS011;12448;45.532;5.290;2022-12-07T09:01:11;455.00;;;111.20;;
24325;SDS011;12448;45.532;5.290;2022-12-07T09:03:36;524.05;;;49.55;;
24325;SDS011;12448;45.532;5.290;2022-12-07T09:06:02;426.20;;;48.80;;
24325;SDS011;12448;45.532;5.290;2022-12-07T09:08:29;495.23;;;88.50;;
24325;SDS011;12448;45.532;5.290;2022-12-07T09:10:59;381.45;;;30.42;;
24325;SDS011;12448;45.532;5.290;2022-12-07T09:13:24;206.77;;;47.33;;
24325;SDS011;12448;45.532;5.290;2022-12-07T09:15:50;391.17;;;82.05;;
24325;SDS011;12448;45.532;5.290;2022-12-07T09:18:15;495.65;;;46.97;;
24325;SDS011;12448;45.532;5.290;2022-12-07T09:20:41;327.85;;;50.47;;
24325;SDS011;12448;45.532;5.290;2022-12-07T09:23:07;138.90;;;37.33;;
24325;SDS011;12448;45.532;5.290;2022-12-07T09:25:33;91.25;;;23.08;;
24325;SDS011;12448;45.532;5.290;2022-12-07T09:27:59;53.63;;;22.53;;
24325;SDS011;12448;45.532;5.290;2022-12-07T09:30:25;93.13;;;38.67;;
24325;SDS011;12448;45.532;5.290;2022-12-07T09:32:55;30.08;;;16.10;;
24325;SDS011;12448;45.532;5.290;2022-12-07T09:35:22;57.22;;;24.00;;
24325;SDS011;12448;45.532;5.290;2022-12-07T09:37:48;45.90;;;22.95;;
24325;SDS011;12448;45.532;5.290;2022-12-07T09:40:14;41.03;;;16.97;;
24325;SDS011;12448;45.532;5.290;2022-12-07T09:42:42;62.33;;;22.57;;
24325;SDS011;12448;45.532;5.290;2022-12-07T09:45:14;58.07;;;19.73;;
24325;SDS011;12448;45.532;5.290;2022-12-07T09:50:15;39.30;;;17.17;;
24325;SDS011;12448;45.532;5.290;2022-12-07T09:52:44;47.78;;;23.20;;
24325;SDS011;12448;45.532;5.290;2022-12-07T09:55:13;49.15;;;22.27;;
24325;SDS011;12448;45.532;5.290;2022-12-07T09:57:46;45.38;;;21.00;;
24325;SDS011;12448;45.532;5.290;2022-12-07T10:00:15;40.77;;;19.67;;
24325;SDS011;12448;45.532;5.290;2022-12-07T10:02:44;35.70;;;17.10;;
24325;SDS011;12448;45.532;5.290;2022-12-07T10:05:32;36.83;;;17.83;;
24325;SDS011;12448;45.532;5.290;2022-12-07T10:08:03;38.17;;;17.43;;
24325;SDS011;12448;45.532;5.290;2022-12-07T10:10:33;46.38;;;24.45;;
24325;SDS011;12448;45.532;5.290;2022-12-07T10:13:01;41.55;;;17.95;;
24325;SDS011;12448;45.532;5.290;2022-12-07T10:18:21;35.10;;;15.57;;
24325;SDS011;12448;45.532;5.290;2022-12-07T10:21:11;33.15;;;16.33;;
24325;SDS011;12448;45.532;5.290;2022-12-07T10:24:27;41.67;;;18.00;;
24325;SDS011;12448;45.532;5.290;2022-12-07T10:29:13;28.90;;;14.23;;
24325;SDS011;12448;45.532;5.290;2022-12-07T10:34:40;62.20;;;28.03;;
24325;SDS011;12448;45.532;5.290;2022-12-07T10:37:13;56.97;;;24.53;;
24325;SDS011;12448;45.532;5.290;2022-12-07T10:42:20;35.95;;;18.65;;
24325;SDS011;12448;45.532;5.290;2022-12-07T10:44:47;37.17;;;18.30;;
24325;SDS011;12448;45.532;5.290;2022-12-07T11:00:59;92.88;;;40.42;;
24325;SDS011;12448;45.532;5.290;2022-12-07T11:11:25;34.53;;;18.30;;
24325;SDS011;12448;45.532;5.290;2022-12-07T11:21:58;87.60;;;37.20;;
24325;SDS011;12448;45.532;5.290;2022-12-07T11:30:23;56.45;;;24.20;;
24325;SDS011;12448;45.532;5.290;2022-12-07T11:35:32;57.23;;;23.10;;
24325;SDS011;12448;45.532;5.290;2022-12-07T11:38:25;70.10;;;36.47;;
24325;SDS011;12448;45.532;5.290;2022-12-07T11:40:59;62.72;;;35.97;;
24325;SDS011;12448;45.532;5.290;2022-12-07T11:43:37;66.03;;;28.00;;
24325;SDS011;12448;45.532;5.290;2022-12-07T11:46:39;78.67;;;33.43;;
24325;SDS011;12448;45.532;5.290;2022-12-07T11:49:15;40.37;;;19.87;;
24325;SDS011;12448;45.532;5.290;2022-12-07T11:52:02;45.27;;;24.00;;
24325;SDS011;12448;45.532;5.290;2022-12-07T11:54:32;61.53;;;28.43;;
24325;SDS011;12448;45.532;5.290;2022-12-07T11:57:07;34.33;;;17.17;;
24325;SDS011;12448;45.532;5.290;2022-12-07T11:59:43;55.57;;;25.13;;
24325;SDS011;12448;45.532;5.290;2022-12-07T12:02:16;36.80;;;19.10;;
24325;SDS011;12448;45.532;5.290;2022-12-07T12:04:58;42.37;;;19.60;;
24325;SDS011;12448;45.532;5.290;2022-12-07T12:07:37;48.40;;;23.35;;
24325;SDS011;12448;45.532;5.290;2022-12-07T12:10:05;47.83;;;23.57;;
24325;SDS011;12448;45.532;5.290;2022-12-07T12:20:58;39.43;;;19.90;;
24325;SDS011;12448;45.532;5.290;2022-12-07T12:25:54;38.23;;;19.37;;
24325;SDS011;12448;45.532;5.290;2022-12-07T12:28:24;41.23;;;20.07;;
24325;SDS011;12448;45.532;5.290;2022-12-07T12:31:04;42.42;;;20.38;;
24325;SDS011;12448;45.532;5.290;2022-12-07T12:33:38;91.70;;;38.42;;
24325;SDS011;12448;45.532;5.290;2022-12-07T12:36:54;57.97;;;26.42;;
24325;SDS011;12448;45.532;5.290;2022-12-07T12:39:16;135.63;;;48.43;;
24325;SDS011;12448;45.532;5.290;2022-12-07T12:46:47;104.63;;;42.35;;
24325;SDS011;12448;45.532;5.290;2022-12-07T12:51:57;46.22;;;25.50;;
24325;SDS011;12448;45.532;5.290;2022-12-07T12:54:25;36.20;;;19.33;;
24325;SDS011;12448;45.532;5.290;2022-12-07T12:57:00;54.10;;;29.30;;
24325;SDS011;12448;45.532;5.290;2022-12-07T13:15:48;34.00;;;17.27;;
24325;SDS011;12448;45.532;5.290;2022-12-07T13:18:40;44.17;;;24.67;;
24325;SDS011;12448;45.532;5.290;2022-12-07T13:26:19;49.83;;;26.90;;
24325;SDS011;12448;45.532;5.290;2022-12-07T13:28:46;44.33;;;22.13;;
24325;SDS011;12448;45.532;5.290;2022-12-07T13:31:23;52.67;;;29.95;;
24325;SDS011;12448;45.532;5.290;2022-12-07T13:33:55;39.58;;;18.52;;
24325;SDS011;12448;45.532;5.290;2022-12-07T13:36:31;49.33;;;28.08;;
24325;SDS011;12448;45.532;5.290;2022-12-07T13:39:22;42.20;;;22.58;;
24325;SDS011;12448;45.532;5.290;2022-12-07T13:41:49;46.83;;;26.40;;
24325;SDS011;12448;45.532;5.290;2022-12-07T13:44:20;39.60;;;20.23;;
24325;SDS011;12448;45.532;5.290;2022-12-07T13:51:51;45.87;;;22.67;;
24325;SDS011;12448;45.532;5.290;2022-12-07T13:54:18;65.28;;;35.72;;
24325;SDS011;12448;45.532;5.290;2022-12-07T13:56:47;42.40;;;24.13;;
24325;SDS011;12448;45.532;5.290;2022-12-07T13:59:26;46.40;;;26.95;;
24325;SDS011;12448;45.532;5.290;2022-12-07T14:01:52;44.88;;;26.83;;
24325;SDS011;12448;45.532;5.290;2022-12-07T14:04:19;52.25;;;28.50;;
24325;SDS011;12448;45.532;5.290;2022-12-07T14:06:56;49.00;;;28.97;;
24325;SDS011;12448;45.532;5.290;2022-12-07T14:09:23;50.08;;;26.13;;
24325;SDS011;12448;45.532;5.290;2022-12-07T14:11:51;74.72;;;40.10;;
24325;SDS011;12448;45.532;5.290;2022-12-07T14:14:22;45.88;;;26.30;;
24325;SDS011;12448;45.532;5.290;2022-12-07T14:17:00;64.40;;;39.30;;
24325;SDS011;12448;45.532;5.290;2022-12-07T14:22:07;74.55;;;48.33;;
24325;SDS011;12448;45.532;5.290;2022-12-07T14:24:47;40.10;;;20.27;;
24325;SDS011;12448;45.532;5.290;2022-12-07T14:27:21;40.13;;;20.73;;
24325;SDS011;12448;45.532;5.290;2022-12-07T14:29:50;43.78;;;26.13;;
24325;SDS011;12448;45.532;5.290;2022-12-07T14:37:20;37.97;;;22.43;;
24325;SDS011;12448;45.532;5.290;2022-12-07T14:39:46;41.80;;;22.08;;
24325;SDS011;12448;45.532;5.290;2022-12-07T14:42:11;62.47;;;34.07;;
24325;SDS011;12448;45.532;5.290;2022-12-07T14:44:37;39.13;;;23.37;;
24325;SDS011;12448;45.532;5.290;2022-12-07T14:47:02;46.50;;;26.50;;
24325;SDS011;12448;45.532;5.290;2022-12-07T14:49:28;49.27;;;28.80;;
24325;SDS011;12448;45.532;5.290;2022-12-07T14:51:54;42.90;;;22.20;;
24325;SDS011;12448;45.532;5.290;2022-12-07T14:54:20;115.23;;;62.37;;
24325;SDS011;12448;45.532;5.290;2022-12-07T14:56:48;52.40;;;27.20;;
24325;SDS011;12448;45.532;5.290;2022-12-07T14:59:16;69.05;;;36.28;;
24325;SDS011;12448;45.532;5.290;2022-12-07T15:01:42;67.15;;;34.83;;
24325;SDS011;12448;45.532;5.290;2022-12-07T15:04:08;67.72;;;36.50;;
24325;SDS011;12448;45.532;5.290;2022-12-07T15:06:33;41.92;;;19.85;;
24325;SDS011;12448;45.532;5.290;2022-12-07T15:08:59;43.40;;;21.58;;
24325;SDS011;12448;45.532;5.290;2022-12-07T15:11:25;51.57;;;27.67;;
24325;SDS011;12448;45.532;5.290;2022-12-07T15:13:51;88.20;;;45.80;;
24325;SDS011;12448;45.532;5.290;2022-12-07T15:16:36;50.67;;;23.43;;
24325;SDS011;12448;45.532;5.290;2022-12-07T15:19:04;51.92;;;26.33;;
24325;SDS011;12448;45.532;5.290;2022-12-07T15:21:31;57.25;;;27.58;;
24325;SDS011;12448;45.532;5.290;2022-12-07T15:23:56;44.80;;;23.40;;
24325;SDS011;12448;45.532;5.290;2022-12-07T15:26:22;48.28;;;25.90;;
24325;SDS011;12448;45.532;5.290;2022-12-07T15:28:47;43.63;;;23.48;;
24325;SDS011;12448;45.532;5.290;2022-12-07T15:31:14;40.03;;;19.83;;
24325;SDS011;12448;45.532;5.290;2022-12-07T15:33:41;53.53;;;21.80;;
24325;SDS011;12448;45.532;5.290;2022-12-07T15:36:07;56.23;;;26.13;;
24325;SDS011;12448;45.532;5.290;2022-12-07T15:38:37;52.83;;;24.00;;
24325;SDS011;12448;45.532;5.290;2022-12-07T15:41:03;46.33;;;22.00;;
24325;SDS011;12448;45.532;5.290;2022-12-07T15:43:28;51.07;;;25.53;;
24325;SDS011;12448;45.532;5.290;2022-12-07T15:46:12;35.30;;;18.58;;
24325;SDS011;12448;45.532;5.290;2022-12-07T15:48:39;36.47;;;19.30;;
24325;SDS011;12448;45.532;5.290;2022-12-07T15:51:05;37.70;;;17.57;;
24325;SDS011;12448;45.532;5.290;2022-12-07T15:53:33;40.20;;;20.27;;
24325;SDS011;12448;45.532;5.290;2022-12-07T15:55:59;38.38;;;19.63;;
24325;SDS011;12448;45.532;5.290;2022-12-07T15:58:25;38.35;;;20.20;;
24325;SDS011;12448;45.532;5.290;2022-12-07T16:00:51;35.83;;;19.02;;
24325;SDS011;12448;45.532;5.290;2022-12-07T16:03:17;37.07;;;18.27;;
24325;SDS011;12448;45.532;5.290;2022-12-07T16:05:48;39.28;;;19.20;;
24325;SDS011;12448;45.532;5.290;2022-12-07T16:08:14;35.03;;;17.85;;
24325;SDS011;12448;45.532;5.290;2022-12-07T16:10:40;53.50;;;27.87;;
24325;SDS011;12448;45.532;5.290;2022-12-07T16:13:08;38.60;;;19.77;;
24325;SDS011;12448;45.532;5.290;2022-12-07T16:15:37;38.15;;;19.20;;
24325;SDS011;12448;45.532;5.290;2022-12-07T16:18:03;35.28;;;18.58;;
24325;SDS011;12448;45.532;5.290;2022-12-07T16:20:29;34.65;;;16.98;;
24325;SDS011;12448;45.532;5.290;2022-12-07T16:22:55;31.30;;;16.20;;
24325;SDS011;12448;45.532;5.290;2022-12-07T16:25:20;34.80;;;17.98;;
24325;SDS011;12448;45.532;5.290;2022-12-07T16:27:46;30.07;;;16.43;;
24325;SDS011;12448;45.532;5.290;2022-12-07T16:30:12;30.70;;;16.33;;
24325;SDS011;12448;45.532;5.290;2022-12-07T16:32:39;37.47;;;19.43;;
24325;SDS011;12448;45.532;5.290;2022-12-07T16:35:04;30.80;;;16.03;;
24325;SDS011;12448;45.532;5.290;2022-12-07T16:37:31;40.37;;;22.03;;
24325;SDS011;12448;45.532;5.290;2022-12-07T16:39:56;37.38;;;20.25;;
24325;SDS011;12448;45.532;5.290;2022-12-07T16:42:22;29.98;;;16.25;;